createdAt,value
2022-12-08T00:01:22.703Z,99850.31
2022-12-08T00:03:51.637Z,99851.97
2022-12-08T00:06:45.685Z,99851.56
2022-12-08T00:09:25.249Z,99846.06
2022-12-08T00:11:55.527Z,99845.63
2022-12-08T00:14:29.544Z,99842.59
2022-12-08T00:17:00.033Z,99844.00
2022-12-08T00:19:29.062Z,99839.88
2022-12-08T00:21:57.542Z,99835.84
2022-12-08T00:24:26.819Z,99831.19
2022-12-08T00:26:54.555Z,99839.56
2022-12-08T00:29:22.878Z,99823.59
2022-12-08T00:31:51.290Z,99825.25
2022-12-08T00:34:20.926Z,99829.09
2022-12-08T00:36:48.691Z,99821.94
2022-12-08T00:39:17.860Z,99819.06
2022-12-08T00:42:03.238Z,99816.56
2022-12-08T00:44:30.957Z,99813.84
2022-12-08T00:46:58.661Z,99808.34
2022-12-08T00:49:27.815Z,99812.59
2022-12-08T00:51:55.649Z,99807.78
2022-12-08T00:54:24.106Z,99809.44
2022-12-08T00:56:52.119Z,99806.41
2022-12-08T00:59:20.211Z,99811.91
2022-12-08T01:01:48.962Z,99820.72
2022-12-08T01:04:18.510Z,99819.88
2022-12-08T01:06:48.184Z,99812.88
2022-12-08T01:09:17.280Z,99812.47
2022-12-08T01:11:45.520Z,99811.34
2022-12-08T01:14:13.671Z,99810.66
2022-12-08T01:16:42.307Z,99809.59
2022-12-08T01:19:12.091Z,99805.84
2022-12-08T01:21:40.144Z,99813.28
2022-12-08T01:24:19.027Z,99819.22
2022-12-08T01:26:47.565Z,99818.22
2022-12-08T01:29:15.521Z,99811.78
2022-12-08T01:31:43.559Z,99815.75
2022-12-08T01:34:11.680Z,99812.75
2022-12-08T01:36:39.434Z,99811.47
2022-12-08T01:39:09.435Z,99806.69
2022-12-08T01:41:40.627Z,99801.97
2022-12-08T01:44:45.462Z,99805.94
2022-12-08T01:47:13.313Z,99804.72
2022-12-08T01:49:41.065Z,99795.75
2022-12-08T01:52:15.327Z,99805.66
2022-12-08T01:54:48.379Z,99807.16
2022-12-08T01:57:22.134Z,99791.44
2022-12-08T01:59:55.691Z,99794.06
2022-12-08T02:02:25.284Z,99793.53
2022-12-08T02:04:53.050Z,99793.41
2022-12-08T02:07:21.607Z,99791.63
2022-12-08T02:09:49.557Z,99790.66
2022-12-08T02:12:18.741Z,99783.47
2022-12-08T02:14:46.505Z,99779.44
2022-12-08T02:17:28.856Z,99780.25
2022-12-08T02:20:34.381Z,99770.63
2022-12-08T02:23:09.319Z,99765.25
2022-12-08T02:25:52.774Z,99769.53
2022-12-08T02:28:44.013Z,99767.72
2022-12-08T02:31:25.637Z,99764.00
2022-12-08T02:34:18.463Z,99757.63
2022-12-08T02:36:59.994Z,99754.88
2022-12-08T02:39:38.774Z,99755.72
2022-12-08T02:42:13.535Z,99753.91
2022-12-08T02:44:48.202Z,99750.34
2022-12-08T02:47:19.231Z,99750.19
2022-12-08T02:49:48.693Z,99750.03
2022-12-08T02:52:42.979Z,99744.66
2022-12-08T02:55:18.708Z,99744.66
2022-12-08T02:58:13.045Z,99746.06
2022-12-08T03:00:57.160Z,99747.03
2022-12-08T03:03:33.691Z,99735.72
2022-12-08T03:06:11.885Z,99740.69
2022-12-08T03:08:50.757Z,99722.94
2022-12-08T03:11:23.156Z,99714.09
2022-12-08T03:13:53.903Z,99713.97
2022-12-08T03:16:25.578Z,99713.00
2022-12-08T03:18:57.717Z,99715.09
2022-12-08T03:21:27.497Z,99706.78
2022-12-08T03:23:57.726Z,99701.69
2022-12-08T03:26:31.427Z,99704.69
2022-12-08T03:28:59.583Z,99701.78
2022-12-08T03:31:32.053Z,99693.94
2022-12-08T03:34:01.794Z,99692.28
2022-12-08T03:36:31.007Z,99689.66
2022-12-08T03:38:58.789Z,99691.19
2022-12-08T03:41:26.976Z,99678.78
2022-12-08T03:43:57.068Z,99681.22
2022-12-08T03:48:54.046Z,99672.53
2022-12-08T03:51:22.588Z,99672.97
2022-12-08T03:53:52.014Z,99668.72
2022-12-08T03:56:24.604Z,99657.28
2022-12-08T03:58:53.066Z,99658.09
2022-12-08T04:01:21.332Z,99650.94
2022-12-08T04:03:49.466Z,99650.47
2022-12-08T04:06:17.721Z,99651.31
2022-12-08T04:08:45.526Z,99649.38
2022-12-08T04:11:14.828Z,99645.78
2022-12-08T04:13:43.272Z,99647.94
2022-12-08T04:16:16.920Z,99640.09
2022-12-08T04:18:45.020Z,99636.78
2022-12-08T04:21:13.069Z,99642.03
2022-12-08T04:23:40.837Z,99636.63
2022-12-08T04:26:09.073Z,99629.06
2022-12-08T04:28:38.482Z,99628.78
2022-12-08T04:31:06.619Z,99626.31
2022-12-08T04:33:35.170Z,99628.50
2022-12-08T04:36:03.278Z,99619.00
2022-12-08T04:38:31.081Z,99616.22
2022-12-08T04:40:58.813Z,99614.41
2022-12-08T04:43:26.835Z,99617.56
2022-12-08T04:45:56.065Z,99615.47
2022-12-08T04:48:24.476Z,99612.69
2022-12-08T04:50:52.519Z,99619.91
2022-12-08T04:53:21.297Z,99612.19
2022-12-08T04:55:49.876Z,99605.00
2022-12-08T04:58:19.843Z,99615.31
2022-12-08T05:00:49.066Z,99609.41
2022-12-08T05:03:21.459Z,99612.88
2022-12-08T05:05:54.697Z,99605.00
2022-12-08T05:08:22.497Z,99611.03
2022-12-08T05:10:50.270Z,99596.00
2022-12-08T05:13:18.042Z,99604.81
2022-12-08T05:15:45.859Z,99604.69
2022-12-08T05:18:13.734Z,99605.78
2022-12-08T05:20:42.817Z,99607.75
2022-12-08T05:23:10.615Z,99601.69
2022-12-08T05:25:38.387Z,99609.69
2022-12-08T05:28:39.565Z,99598.53
2022-12-08T05:30:54.323Z,99603.13
2022-12-08T05:33:22.062Z,99597.22
2022-12-08T05:35:51.287Z,99595.56
2022-12-08T05:38:19.098Z,99589.63
2022-12-08T05:40:46.819Z,99587.97
2022-12-08T05:43:15.266Z,99585.38
2022-12-08T05:45:43.056Z,99588.31
2022-12-08T05:48:10.835Z,99582.25
2022-12-08T05:50:38.625Z,99578.84
2022-12-08T05:53:07.826Z,99587.25
2022-12-08T05:55:35.597Z,99585.38
2022-12-08T05:58:07.816Z,99580.00
2022-12-08T06:00:35.989Z,99579.59
2022-12-08T06:03:04.087Z,99583.03
2022-12-08T06:05:33.770Z,99579.09
2022-12-08T06:08:01.697Z,99575.31
2022-12-08T06:10:31.175Z,99576.31
2022-12-08T06:12:58.965Z,99570.63
2022-12-08T06:15:26.991Z,99565.25
2022-12-08T06:17:54.714Z,99570.16
2022-12-08T06:20:22.488Z,99565.91
2022-12-08T06:22:50.383Z,99567.28
2022-12-08T06:25:18.318Z,99564.19
2022-12-08T06:27:47.602Z,99565.84
2022-12-08T06:30:16.234Z,99555.38
2022-12-08T06:32:44.270Z,99560.19
2022-12-08T06:35:12.132Z,99561.44
2022-12-08T06:37:39.938Z,99563.06
2022-12-08T06:40:09.102Z,99561.16
2022-12-08T06:42:47.204Z,99564.88
2022-12-08T06:45:18.334Z,99563.59
2022-12-08T06:47:46.447Z,99562.78
2022-12-08T06:50:15.085Z,99564.59
2022-12-08T06:52:54.217Z,99567.56
2022-12-08T06:55:57.512Z,99568.41
2022-12-08T06:58:15.665Z,99566.59
2022-12-08T07:00:45.259Z,99567.94
2022-12-08T07:03:14.654Z,99570.56
2022-12-08T07:05:42.405Z,99573.50
2022-12-08T07:08:10.582Z,99573.31
2022-12-08T07:10:38.729Z,99579.25
2022-12-08T07:13:06.518Z,99577.09
2022-12-08T07:15:34.355Z,99579.38
2022-12-08T07:18:03.609Z,99577.44
2022-12-08T07:20:31.439Z,99578.56
2022-12-08T07:22:59.240Z,99581.16
2022-12-08T07:25:26.985Z,99586.59
2022-12-08T07:27:54.783Z,99575.09
2022-12-08T07:30:22.805Z,99575.94
2022-12-08T07:32:50.704Z,99585.44
2022-12-08T07:35:19.925Z,99581.03
2022-12-08T07:37:47.738Z,99576.75
2022-12-08T07:40:15.923Z,99582.47
2022-12-08T07:42:43.644Z,99582.19
2022-12-08T07:45:11.605Z,99573.50
2022-12-08T07:47:39.498Z,99570.88
2022-12-08T07:50:08.852Z,99584.13
2022-12-08T07:52:38.022Z,99581.78
2022-12-08T07:55:06.574Z,99585.75
2022-12-08T07:57:34.269Z,99592.34
2022-12-08T08:00:02.492Z,99584.34
2022-12-08T08:02:39.663Z,99584.34
2022-12-08T08:05:08.449Z,99579.91
2022-12-08T08:07:37.146Z,99577.44
2022-12-08T08:10:08.007Z,99580.97
2022-12-08T08:12:36.685Z,99585.38
2022-12-08T08:15:07.417Z,99577.66
2022-12-08T08:17:35.822Z,99579.31
2022-12-08T08:20:06.952Z,99577.50
2022-12-08T08:22:36.738Z,99581.78
2022-12-08T08:25:06.679Z,99579.03
2022-12-08T08:27:34.416Z,99586.88
2022-12-08T08:30:02.730Z,99585.75
2022-12-08T08:32:34.001Z,99594.97
2022-12-08T08:35:02.790Z,99582.81
2022-12-08T08:37:30.498Z,99593.88
2022-12-08T08:39:58.261Z,99592.22
2022-12-08T08:42:28.430Z,99602.44
2022-12-08T08:44:56.184Z,99592.31
2022-12-08T08:47:24.051Z,99600.03
2022-12-08T08:49:51.923Z,99596.28
2022-12-08T08:52:19.647Z,99593.50
2022-12-08T08:54:47.382Z,99598.59
2022-12-08T08:57:15.102Z,99597.47
2022-12-08T08:59:44.248Z,99605.47
2022-12-08T09:02:17.787Z,99593.19
2022-12-08T09:04:46.092Z,99598.97
2022-12-08T09:07:14.215Z,99603.38
2022-12-08T09:09:43.235Z,99602.84
2022-12-08T09:12:11.511Z,99604.72
2022-12-08T09:14:39.670Z,99605.41
2022-12-08T09:17:09.128Z,99605.09
2022-12-08T09:19:38.097Z,99601.66
2022-12-08T09:22:06.323Z,99599.47
2022-12-08T09:24:35.119Z,99610.03
2022-12-08T09:27:02.801Z,99603.81
2022-12-08T09:29:35.751Z,99616.63
2022-12-08T09:32:04.312Z,99619.75
2022-12-08T09:34:33.494Z,99619.91
2022-12-08T09:37:01.218Z,99619.91
2022-12-08T09:39:29.419Z,99612.78
2022-12-08T09:42:01.451Z,99616.72
2022-12-08T09:44:48.512Z,99613.31
2022-12-08T09:47:24.455Z,99621.69
2022-12-08T09:50:01.236Z,99612.22
2022-12-08T09:52:33.553Z,99616.25
2022-12-08T09:55:05.681Z,99612.78
2022-12-08T09:57:33.447Z,99613.31
2022-12-08T10:00:05.501Z,99616.31
2022-12-08T10:02:34.074Z,99616.44
2022-12-08T10:05:03.276Z,99612.72
2022-12-08T10:07:44.347Z,99609.47
2022-12-08T10:10:23.742Z,99617.03
2022-12-08T10:13:00.476Z,99616.88
2022-12-08T10:15:40.740Z,99611.03
2022-12-08T10:18:16.193Z,99605.81
2022-12-08T10:20:47.804Z,99608.78
2022-12-08T10:23:24.666Z,99604.22
2022-12-08T10:25:56.565Z,99600.66
2022-12-08T10:28:24.406Z,99596.63
2022-12-08T10:30:52.294Z,99599.13
2022-12-08T10:33:22.777Z,99593.88
2022-12-08T10:35:54.241Z,99599.44
2022-12-08T10:38:24.619Z,99591.06
2022-12-08T10:40:54.253Z,99588.09
2022-12-08T10:43:26.687Z,99597.75
2022-12-08T10:45:54.649Z,99589.25
2022-12-08T10:48:26.955Z,99594.53
2022-12-08T10:50:57.957Z,99587.59
2022-12-08T10:53:27.744Z,99591.19
2022-12-08T10:56:07.828Z,99580.44
2022-12-08T10:58:40.556Z,99577.00
2022-12-08T11:01:13.944Z,99577.34
2022-12-08T11:03:47.430Z,99574.72
2022-12-08T11:06:20.432Z,99574.88
2022-12-08T11:08:52.072Z,99576.88
2022-12-08T11:11:25.880Z,99580.31
2022-12-08T11:13:57.332Z,99591.66
2022-12-08T11:16:25.272Z,99586.59
2022-12-08T11:18:59.004Z,99588.91
2022-12-08T11:21:37.509Z,99576.94
2022-12-08T11:24:22.736Z,99579.41
2022-12-08T11:26:54.525Z,99574.69
2022-12-08T11:29:22.665Z,99582.53
2022-12-08T11:31:54.516Z,99570.72
2022-12-08T11:34:32.293Z,99580.91
2022-12-08T11:37:02.069Z,99572.50
2022-12-08T11:39:33.257Z,99574.00
2022-12-08T11:42:03.729Z,99569.41
2022-12-08T11:44:37.154Z,99571.72
2022-12-08T11:47:11.671Z,99566.00
2022-12-08T11:49:42.003Z,99563.03
2022-12-08T11:52:22.126Z,99557.78
2022-12-08T11:54:56.919Z,99556.94
2022-12-08T11:57:27.948Z,99549.59
2022-12-08T11:59:58.313Z,99557.13
2022-12-08T12:02:29.173Z,99555.31
2022-12-08T12:05:02.997Z,99562.19
2022-12-08T12:07:48.697Z,99556.47
2022-12-08T12:10:47.609Z,99553.69
2022-12-08T12:13:32.312Z,99563.38
2022-12-08T12:16:33.231Z,99558.94
2022-12-08T12:19:04.414Z,99556.31
2022-12-08T12:21:36.813Z,99551.69
2022-12-08T12:24:10.740Z,99553.50
2022-12-08T12:26:50.205Z,99560.88
2022-12-08T12:29:21.146Z,99552.50
2022-12-08T12:31:53.100Z,99551.50
2022-12-08T12:34:24.435Z,99558.91
2022-12-08T12:36:55.722Z,99556.13
2022-12-08T12:39:29.732Z,99558.34
2022-12-08T12:42:00.540Z,99562.44
2022-12-08T12:44:40.704Z,99566.06
2022-12-08T12:47:14.719Z,99560.47
2022-12-08T12:50:08.009Z,99560.28
2022-12-08T12:52:41.005Z,99559.44
2022-12-08T12:55:25.528Z,99557.44
2022-12-08T12:57:55.278Z,99567.56
2022-12-08T13:00:24.898Z,99574.44
2022-12-08T13:02:54.263Z,99567.72
2022-12-08T13:05:26.157Z,99566.22
2022-12-08T13:07:57.796Z,99569.81
2022-12-08T13:10:29.981Z,99575.75
2022-12-08T13:13:08.399Z,99572.81
2022-12-08T13:15:38.805Z,99566.41
2022-12-08T13:18:08.544Z,99573.97
2022-12-08T13:20:43.603Z,99564.75
2022-12-08T13:23:28.841Z,99571.00
2022-12-08T13:26:16.785Z,99568.84
2022-12-08T13:29:14.942Z,99563.13
2022-12-08T13:31:50.151Z,99563.13
2022-12-08T13:34:23.457Z,99560.97
2022-12-08T13:37:01.085Z,99559.03
2022-12-08T13:39:33.334Z,99554.22
2022-12-08T13:42:06.934Z,99558.19
2022-12-08T13:47:34.775Z,99564.13
2022-12-08T13:56:59.484Z,99568.38
2022-12-08T13:58:41.932Z,99565.75
2022-12-08T14:01:16.241Z,99565.94
2022-12-08T14:04:12.764Z,99563.44
2022-12-08T14:06:39.842Z,99566.72
2022-12-08T14:09:12.869Z,99562.41
2022-12-08T14:11:43.892Z,99567.44
2022-12-08T14:14:32.770Z,99571.69
2022-12-08T14:17:07.146Z,99572.88
2022-12-08T14:19:36.248Z,99562.81
2022-12-08T14:22:11.721Z,99567.88
2022-12-08T14:24:39.734Z,99567.66
2022-12-08T14:27:10.237Z,99572.69
2022-12-08T14:29:45.101Z,99566.91
2022-12-08T14:32:31.374Z,99567.38
2022-12-08T14:35:02.588Z,99561.13
2022-12-08T14:37:33.433Z,99564.84
2022-12-08T14:40:04.176Z,99560.22
2022-12-08T14:42:42.641Z,99562.47
2022-12-08T14:45:14.198Z,99559.47
2022-12-08T14:47:42.957Z,99570.25
2022-12-08T14:50:39.672Z,99575.09
2022-12-08T14:53:14.486Z,99570.47
2022-12-08T14:55:44.211Z,99576.16
2022-12-08T14:58:18.519Z,99573.47
2022-12-08T15:00:51.435Z,99572.66
2022-12-08T15:03:22.567Z,99577.53
2022-12-08T15:05:52.972Z,99573.72
2022-12-08T15:08:20.789Z,99579.50
2022-12-08T15:11:08.648Z,99581.75
2022-12-08T15:13:36.475Z,99578.91
2022-12-08T15:16:27.912Z,99573.28
2022-12-08T15:19:27.581Z,99576.19
2022-12-08T15:21:56.470Z,99577.59
2022-12-08T15:24:26.664Z,99575.59
2022-12-08T15:26:54.933Z,99579.03
2022-12-08T15:29:25.642Z,99578.47
2022-12-08T15:31:56.414Z,99584.97
2022-12-08T15:34:24.366Z,99582.38
2022-12-08T15:36:54.137Z,99588.41
2022-12-08T15:39:29.501Z,99591.19
2022-12-08T15:41:57.293Z,99586.91
2022-12-08T15:44:25.083Z,99584.44
2022-12-08T15:46:54.855Z,99588.00
2022-12-08T15:49:24.695Z,99587.19
2022-12-08T15:51:59.473Z,99589.28
2022-12-08T15:54:35.764Z,99583.22
2022-12-08T15:57:19.270Z,99582.41
2022-12-08T15:59:49.789Z,99589.56
2022-12-08T16:02:22.562Z,99592.88
2022-12-08T16:07:39.545Z,99588.34
2022-12-08T16:10:09.321Z,99598.44
2022-12-08T16:13:54.876Z,99578.22
2022-12-08T16:15:55.099Z,99593.34
2022-12-08T16:18:31.127Z,99590.34
2022-12-08T16:23:47.842Z,99595.03
2022-12-08T16:26:44.077Z,99593.38
2022-12-08T16:29:05.735Z,99599.75
2022-12-08T16:31:33.857Z,99597.13
2022-12-08T16:34:03.130Z,99602.59
2022-12-08T16:36:30.908Z,99607.25
2022-12-08T16:38:58.716Z,99601.59
2022-12-08T16:41:44.170Z,99607.91
2022-12-08T16:44:11.945Z,99612.28
2022-12-08T16:46:40.041Z,99609.78
2022-12-08T16:49:10.439Z,99609.59
2022-12-08T16:51:38.211Z,99603.63
2022-12-08T16:54:06.082Z,99606.19
2022-12-08T16:56:33.935Z,99599.38
2022-12-08T16:59:02.219Z,99600.34
2022-12-08T17:01:30.375Z,99611.75
2022-12-08T17:06:47.328Z,99617.75
2022-12-08T17:09:15.086Z,99613.59
2022-12-08T17:11:43.861Z,99612.47
2022-12-08T17:14:12.394Z,99599.53
2022-12-08T17:16:40.257Z,99610.22
2022-12-08T17:19:08.136Z,99610.06
2022-12-08T17:21:36.039Z,99613.22
2022-12-08T17:24:05.361Z,99612.25
2022-12-08T17:26:33.195Z,99615.41
2022-12-08T17:29:03.287Z,99612.56
2022-12-08T17:31:32.259Z,99613.81
2022-12-08T17:34:00.928Z,99613.59
2022-12-08T17:36:28.689Z,99609.44
2022-12-08T17:38:57.071Z,99613.03
2022-12-08T17:41:26.271Z,99619.09
2022-12-08T17:43:54.041Z,99616.34
2022-12-08T17:46:23.217Z,99608.34
2022-12-08T17:48:51.200Z,99618.97
2022-12-08T17:51:19.239Z,99617.16
2022-12-08T17:53:47.240Z,99601.13
2022-12-08T17:56:16.652Z,99618.44
2022-12-08T17:58:51.063Z,99617.16
2022-12-08T18:01:22.536Z,99619.66
2022-12-08T18:03:50.390Z,99623.78
2022-12-08T18:06:18.473Z,99619.50
2022-12-08T18:08:46.305Z,99621.16
2022-12-08T18:11:17.038Z,99619.19
2022-12-08T18:13:46.738Z,99624.97
2022-12-08T18:16:15.069Z,99624.00
2022-12-08T18:18:43.281Z,99613.53
2022-12-08T18:21:11.385Z,99615.00
2022-12-08T18:23:40.154Z,99614.84
2022-12-08T18:26:09.176Z,99611.13
2022-12-08T18:28:37.027Z,99611.50
2022-12-08T18:31:11.020Z,99612.88
2022-12-08T18:33:40.983Z,99614.47
2022-12-08T18:36:10.468Z,99609.09
2022-12-08T18:38:38.550Z,99605.38
2022-12-08T18:41:08.191Z,99609.94
2022-12-08T18:43:36.674Z,99608.06
2022-12-08T18:46:07.608Z,99613.44
2022-12-08T18:48:38.141Z,99597.28
2022-12-08T18:51:10.678Z,99613.44
2022-12-08T18:53:39.035Z,99615.09
2022-12-08T18:56:08.072Z,99593.00
2022-12-08T18:58:36.153Z,99613.75
2022-12-08T19:01:04.386Z,99615.69
2022-12-08T19:03:32.205Z,99614.19
2022-12-08T19:06:05.068Z,99615.19
2022-12-08T19:08:32.987Z,99621.38
2022-12-08T19:11:01.174Z,99603.38
2022-12-08T19:13:29.269Z,99619.88
2022-12-08T19:15:57.644Z,99624.44
2022-12-08T19:18:25.435Z,99618.91
2022-12-08T19:20:56.978Z,99622.50
2022-12-08T19:23:26.242Z,99627.88
2022-12-08T19:25:54.013Z,99634.53
2022-12-08T19:28:21.827Z,99637.16
2022-12-08T19:30:49.753Z,99633.69
2022-12-08T19:33:17.602Z,99624.56
2022-12-08T19:35:52.227Z,99628.00
2022-12-08T19:38:20.841Z,99627.19
2022-12-08T19:41:07.464Z,99627.88
2022-12-08T19:43:52.830Z,99623.31
2022-12-08T19:46:20.863Z,99629.91
2022-12-08T19:48:48.854Z,99623.69
2022-12-08T19:51:16.720Z,99628.09
2022-12-08T19:53:47.808Z,99635.97
2022-12-08T19:56:17.236Z,99627.44
2022-12-08T19:58:45.000Z,99622.34
2022-12-08T20:01:12.911Z,99608.13
2022-12-08T20:03:40.782Z,99624.88
2022-12-08T20:06:12.585Z,99632.59
2022-12-08T20:08:40.401Z,99632.75
2022-12-08T20:11:08.314Z,99637.97
2022-12-08T20:13:46.089Z,99641.56
2022-12-08T20:16:14.604Z,99630.25
2022-12-08T20:18:44.092Z,99635.34
2022-12-08T20:21:12.890Z,99636.59
2022-12-08T20:23:40.664Z,99634.38
2022-12-08T20:26:10.002Z,99637.84
2022-12-08T20:28:39.838Z,99643.59
2022-12-08T20:31:07.806Z,99645.09
2022-12-08T20:33:35.635Z,99643.00
2022-12-08T20:36:07.523Z,99641.50
2022-12-08T20:38:35.389Z,99648.41
2022-12-08T20:41:03.094Z,99648.41
2022-12-08T20:43:30.808Z,99639.72
2022-12-08T20:46:00.042Z,99642.63
2022-12-08T20:48:27.915Z,99647.34
2022-12-08T20:50:55.907Z,99659.88
2022-12-08T20:53:23.801Z,99654.94
2022-12-08T20:55:51.844Z,99659.53
2022-12-08T20:58:19.654Z,99661.97
2022-12-08T21:00:47.756Z,99661.16
2022-12-08T21:03:18.631Z,99660.03
2022-12-08T21:05:50.397Z,99660.72
2022-12-08T21:08:19.236Z,99658.94
2022-12-08T21:10:53.796Z,99657.66
2022-12-08T21:13:21.849Z,99669.78
2022-12-08T21:15:49.899Z,99655.72
2022-12-08T21:18:19.291Z,99654.75
2022-12-08T21:20:48.247Z,99655.56
2022-12-08T21:23:17.162Z,99652.41
2022-12-08T21:25:46.376Z,99657.00
2022-12-08T21:28:14.313Z,99651.06
2022-12-08T21:30:43.112Z,99650.38
2022-12-08T21:33:11.253Z,99642.00
2022-12-08T21:35:40.736Z,99650.25
2022-12-08T21:38:08.626Z,99659.06
2022-12-08T21:40:36.693Z,99663.34
2022-12-08T21:43:04.855Z,99667.75
2022-12-08T21:45:35.008Z,99657.00
2022-12-08T21:48:10.892Z,99663.72
2022-12-08T21:50:40.799Z,99660.81
2022-12-08T21:53:08.697Z,99655.44
2022-12-08T21:55:36.577Z,99650.19
2022-12-08T21:58:04.491Z,99652.00
2022-12-08T22:00:33.095Z,99654.47
2022-12-08T22:03:01.230Z,99653.47
2022-12-08T22:05:29.239Z,99649.06
2022-12-08T22:07:58.869Z,99649.59
2022-12-08T22:10:26.780Z,99649.59
2022-12-08T22:12:54.601Z,99645.31
2022-12-08T22:15:22.432Z,99648.81
2022-12-08T22:17:50.426Z,99652.63
2022-12-08T22:20:18.731Z,99648.41
2022-12-08T22:22:46.862Z,99649.13
2022-12-08T22:25:16.161Z,99645.44
2022-12-08T22:27:44.139Z,99644.69
2022-12-08T22:30:13.224Z,99644.28
2022-12-08T22:32:41.815Z,99637.97
2022-12-08T22:35:10.662Z,99641.41
2022-12-08T22:37:38.645Z,99635.22
2022-12-08T22:40:08.834Z,99637.31
2022-12-08T22:42:38.164Z,99626.97
2022-12-08T22:45:06.778Z,99632.34
2022-12-08T22:47:34.780Z,99626.56
2022-12-08T22:50:02.713Z,99632.50
2022-12-08T22:52:30.537Z,99639.38
2022-12-08T22:54:58.321Z,99633.06
2022-12-08T22:57:26.168Z,99638.03
2022-12-08T22:59:55.422Z,99643.38
2022-12-08T23:02:23.212Z,99637.19
2022-12-08T23:04:51.250Z,99635.41
2022-12-08T23:07:19.128Z,99637.34
2022-12-08T23:09:47.179Z,99630.59
2022-12-08T23:12:14.898Z,99634.34
2022-12-08T23:14:42.749Z,99631.03
2022-12-08T23:17:12.062Z,99625.53
2022-12-08T23:19:40.211Z,99637.25
2022-12-08T23:22:07.993Z,99633.53
2022-12-08T23:24:35.778Z,99638.38
2022-12-08T23:27:03.634Z,99642.66
2022-12-08T23:29:31.415Z,99638.28
2022-12-08T23:31:59.191Z,99636.09
2022-12-08T23:34:28.311Z,99639.78
2022-12-08T23:36:56.201Z,99644.19
2022-12-08T23:39:24.871Z,99643.22
2022-12-08T23:41:52.806Z,99643.63
2022-12-08T23:44:20.661Z,99638.00
2022-12-08T23:46:48.546Z,99635.78
2022-12-08T23:49:16.503Z,99631.94
2022-12-08T23:51:45.626Z,99636.72
2022-12-08T23:54:13.782Z,99637.13
2022-12-08T23:56:41.753Z,99635.75
2022-12-08T23:59:09.525Z,99632.16
